CST,Max TemperatureF,Mean TemperatureF,Min TemperatureF,Max Dew PointF,MeanDew PointF,Min DewpointF,Max Humidity, Mean Humidity, Min Humidity, Max Sea Level PressureIn, Mean Sea Level PressureIn, Min Sea Level PressureIn, Max VisibilityMiles, Mean VisibilityMiles, Min VisibilityMiles, Max Wind SpeedMPH, Mean Wind SpeedMPH, Max Gust SpeedMPH,PrecipitationIn, CloudCover, Events, WindDirDegrees
2013-11-1,44,42,41,41,39,37,95,89,81,29.73,29.54,29.31,10,9,4,17,11,24,0.02,8,Rain,258
2013-11-2,42,40,37,40,38,34,100,92,77,30.15,29.95,29.73,10,8,2,9,4,,0.10,8,Rain,309
2013-11-3,49,38,28,42,33,28,100,80,45,30.29,30.23,30.15,10,7,0,13,4,20,0.00,3,Fog,134
2013-11-4,52,46,41,42,36,33,81,65,50,30.23,30.14,30.04,10,10,10,22,15,30,0.00,4,Rain,163
2013-11-5,53,49,45,51,47,43,100,90,69,30.25,30.13,29.88,10,6,1,20,6,29,0.33,8,Rain,132
2013-11-6,53,42,31,54,37,21,100,83,57,30.14,29.92,29.70,10,8,2,20,13,33,0.20,6,Rain,268
2013-11-7,40,33,26,29,26,23,92,75,54,30.22,30.18,30.15,10,10,5,12,6,17,0.00,3,Snow,258
2013-11-8,44,34,24,31,28,24,100,76,54,30.28,30.14,29.80,10,7,2,22,6,28,0.00,2,,165
2013-11-9,50,44,39,37,31,18,75,57,42,30.05,29.85,29.74,10,10,10,22,16,33,0.00,7,Rain,242
2013-11-10,45,41,37,29,25,21,64,54,38,30.30,30.21,30.06,10,10,10,14,10,23,0.00,5,,254
2013-11-11,41,32,23,33,22,11,98,67,49,30.53,30.25,30.05,10,9,1,17,9,28,0.02,5,Rain-Snow,308
2013-11-12,28,22,17,14,11,6,77,63,38,30.69,30.61,30.53,10,10,10,13,8,18,0.00,0,,275
2013-11-13,40,28,17,15,12,6,81,53,26,30.53,30.27,30.04,10,10,10,25,13,34,0.00,0,,208
2013-11-14,45,37,29,31,21,15,77,54,39,30.03,29.93,29.87,10,10,10,20,13,24,0.00,1,Rain,200
2013-11-15,52,42,33,32,29,26,83,62,45,29.93,29.89,29.87,10,10,10,13,8,16,0.00,1,,183
2013-11-16,57,46,35,53,45,32,100,90,79,29.88,29.67,29.49,10,7,1,28,14,43,0.07,6,Rain-Thunderstorm,161
2013-11-17,57,48,39,54,46,29,100,87,66,29.64,29.39,29.16,10,8,1,21,13,31,0.77,8,Rain-Thunderstorm,244
2013-11-18,38,32,25,30,21,18,78,64,56,30.24,29.97,29.64,10,10,10,21,13,32,0.00,7,,280
2013-11-19,38,30,21,30,22,18,92,74,47,30.36,30.29,30.24,10,10,10,12,4,,0.00,0,,145
2013-11-20,40,35,30,35,27,22,99,72,48,30.24,30.17,30.09,10,9,2,17,12,24,0.00,4,Rain,145
2013-11-21,42,38,35,37,35,33,99,88,73,30.25,30.16,30.11,10,5,2,9,4,,0.00,8,,343
2013-11-22,36,30,23,34,22,9,95,73,51,30.46,30.40,30.24,10,8,1,15,10,21,0.00,3,Rain-Snow,294
2013-11-23,25,18,10,12,2,-2,65,53,40,30.68,30.58,30.39,10,10,10,18,11,26,0.00,2,,308
2013-11-24,25,16,7,5,1,-5,77,52,27,30.67,30.50,30.23,10,10,10,24,8,30,0.00,0,,228
2013-11-25,29,24,20,24,18,4,90,74,47,30.22,30.06,29.98,10,9,1,23,16,33,0.00,7,Snow,213
2013-11-26,31,22,12,25,13,0,81,62,42,30.19,30.07,29.98,10,10,4,15,8,26,0.00,6,Snow,291
2013-11-27,25,17,9,12,6,1,78,62,41,30.24,30.20,30.18,10,10,10,12,7,16,0.00,2,,295
2013-11-28,27,20,14,13,11,8,79,65,52,30.48,30.26,30.15,10,10,10,9,5,,0.00,5,Snow,209
2013-11-29,29,19,9,19,13,6,88,71,49,30.61,30.50,30.33,10,10,10,13,3,,0.00,0,,153
2013-11-30,41,34,26,27,24,18,79,69,54,30.33,30.13,30.02,10,10,10,15,9,21,0.00,1,,198